sensor_id;sensor_type;location;lat;lon;timestamp;temperature;humidity
5901;DHT22;2976;49.764;9.796;2023-10-13T00:02:02;15.70;99.90
5901;DHT22;2976;49.764;9.796;2023-10-13T00:04:31;15.80;99.90
5901;DHT22;2976;49.764;9.796;2023-10-13T00:07:02;15.80;99.90
5901;DHT22;2976;49.764;9.796;2023-10-13T00:09:28;15.80;99.90
5901;DHT22;2976;49.764;9.796;2023-10-13T00:12:00;15.80;99.90
5901;DHT22;2976;49.764;9.796;2023-10-13T00:14:27;15.70;99.90
5901;DHT22;2976;49.764;9.796;2023-10-13T00:17:05;15.70;99.90
5901;DHT22;2976;49.764;9.796;2023-10-13T00:19:32;15.70;99.90
5901;DHT22;2976;49.764;9.796;2023-10-13T00:22:10;15.60;99.90
5901;DHT22;2976;49.764;9.796;2023-10-13T00:24:38;15.60;99.90
5901;DHT22;2976;49.764;9.796;2023-10-13T00:27:12;15.70;99.90
5901;DHT22;2976;49.764;9.796;2023-10-13T00:30:10;15.70;99.90
5901;DHT22;2976;49.764;9.796;2023-10-13T00:32:59;15.70;99.90
5901;DHT22;2976;49.764;9.796;2023-10-13T00:35:28;15.70;99.90
5901;DHT22;2976;49.764;9.796;2023-10-13T00:37:58;15.70;99.90
5901;DHT22;2976;49.764;9.796;2023-10-13T00:40:30;15.80;99.90
5901;DHT22;2976;49.764;9.796;2023-10-13T00:42:57;15.70;99.90
5901;DHT22;2976;49.764;9.796;2023-10-13T00:45:46;15.80;99.90
5901;DHT22;2976;49.764;9.796;2023-10-13T00:48:29;15.80;99.90
5901;DHT22;2976;49.764;9.796;2023-10-13T00:51:05;15.90;99.90
5901;DHT22;2976;49.764;9.796;2023-10-13T00:53:41;15.90;99.90
5901;DHT22;2976;49.764;9.796;2023-10-13T00:56:09;15.90;99.90
5901;DHT22;2976;49.764;9.796;2023-10-13T00:58:45;15.90;99.90
5901;DHT22;2976;49.764;9.796;2023-10-13T01:01:12;16.00;99.90
5901;DHT22;2976;49.764;9.796;2023-10-13T01:03:50;16.00;99.90
5901;DHT22;2976;49.764;9.796;2023-10-13T01:06:21;15.90;99.90
5901;DHT22;2976;49.764;9.796;2023-10-13T01:08:58;15.80;99.90
5901;DHT22;2976;49.764;9.796;2023-10-13T01:11:25;15.80;99.90
5901;DHT22;2976;49.764;9.796;2023-10-13T01:13:52;15.80;99.90
5901;DHT22;2976;49.764;9.796;2023-10-13T01:16:20;15.80;99.90
5901;DHT22;2976;49.764;9.796;2023-10-13T01:18:52;15.70;99.90
5901;DHT22;2976;49.764;9.796;2023-10-13T01:21:18;15.70;99.90
5901;DHT22;2976;49.764;9.796;2023-10-13T01:23:52;15.70;99.90
5901;DHT22;2976;49.764;9.796;2023-10-13T01:26:18;15.60;99.90
5901;DHT22;2976;49.764;9.796;2023-10-13T01:28:57;15.60;99.90
5901;DHT22;2976;49.764;9.796;2023-10-13T01:31:23;15.60;99.90
5901;DHT22;2976;49.764;9.796;2023-10-13T01:33:56;15.50;99.90
5901;DHT22;2976;49.764;9.796;2023-10-13T01:36:26;15.50;99.90
5901;DHT22;2976;49.764;9.796;2023-10-13T01:38:52;15.50;99.90
5901;DHT22;2976;49.764;9.796;2023-10-13T01:41:18;15.40;99.90
5901;DHT22;2976;49.764;9.796;2023-10-13T01:43:44;15.40;99.90
5901;DHT22;2976;49.764;9.796;2023-10-13T01:46:11;15.40;99.90
5901;DHT22;2976;49.764;9.796;2023-10-13T01:48:39;15.30;99.90
5901;DHT22;2976;49.764;9.796;2023-10-13T01:51:06;15.30;99.90
5901;DHT22;2976;49.764;9.796;2023-10-13T01:53:36;15.20;99.90
5901;DHT22;2976;49.764;9.796;2023-10-13T01:56:03;15.10;99.90
5901;DHT22;2976;49.764;9.796;2023-10-13T01:58:31;15.10;99.90
5901;DHT22;2976;49.764;9.796;2023-10-13T02:00:57;15.00;99.90
5901;DHT22;2976;49.764;9.796;2023-10-13T02:03:25;15.00;99.90
5901;DHT22;2976;49.764;9.796;2023-10-13T02:05:52;15.00;99.90
5901;DHT22;2976;49.764;9.796;2023-10-13T02:08:23;15.00;99.90
5901;DHT22;2976;49.764;9.796;2023-10-13T02:10:56;15.10;99.90
5901;DHT22;2976;49.764;9.796;2023-10-13T02:13:23;15.20;99.90
5901;DHT22;2976;49.764;9.796;2023-10-13T02:15:53;15.20;99.90
5901;DHT22;2976;49.764;9.796;2023-10-13T02:18:21;15.30;99.90
5901;DHT22;2976;49.764;9.796;2023-10-13T02:20:55;15.40;99.90
5901;DHT22;2976;49.764;9.796;2023-10-13T02:23:22;15.40;99.90
5901;DHT22;2976;49.764;9.796;2023-10-13T02:25:48;15.50;99.90
5901;DHT22;2976;49.764;9.796;2023-10-13T02:28:17;15.50;99.90
5901;DHT22;2976;49.764;9.796;2023-10-13T02:30:47;15.50;99.90
5901;DHT22;2976;49.764;9.796;2023-10-13T02:33:18;15.50;99.90
5901;DHT22;2976;49.764;9.796;2023-10-13T02:35:50;15.50;99.90
5901;DHT22;2976;49.764;9.796;2023-10-13T02:38:20;15.50;99.90
5901;DHT22;2976;49.764;9.796;2023-10-13T02:41:12;15.60;99.90
5901;DHT22;2976;49.764;9.796;2023-10-13T02:43:44;15.60;99.90
5901;DHT22;2976;49.764;9.796;2023-10-13T02:46:09;15.60;99.90
5901;DHT22;2976;49.764;9.796;2023-10-13T02:48:35;15.60;99.90
5901;DHT22;2976;49.764;9.796;2023-10-13T02:51:08;15.50;99.90
5901;DHT22;2976;49.764;9.796;2023-10-13T02:53:47;15.50;99.90
5901;DHT22;2976;49.764;9.796;2023-10-13T02:56:14;15.60;99.90
5901;DHT22;2976;49.764;9.796;2023-10-13T02:58:45;15.50;99.90
5901;DHT22;2976;49.764;9.796;2023-10-13T03:01:11;15.50;99.90
5901;DHT22;2976;49.764;9.796;2023-10-13T03:03:48;15.50;99.90
5901;DHT22;2976;49.764;9.796;2023-10-13T03:06:16;15.60;99.90
5901;DHT22;2976;49.764;9.796;2023-10-13T03:08:42;15.60;99.90
5901;DHT22;2976;49.764;9.796;2023-10-13T03:11:09;15.60;99.90
5901;DHT22;2976;49.764;9.796;2023-10-13T03:13:35;15.70;99.90
5901;DHT22;2976;49.764;9.796;2023-10-13T03:16:10;15.70;99.90
5901;DHT22;2976;49.764;9.796;2023-10-13T03:18:36;15.70;99.90
5901;DHT22;2976;49.764;9.796;2023-10-13T03:21:03;15.70;99.90
5901;DHT22;2976;49.764;9.796;2023-10-13T03:23:29;15.70;99.90
5901;DHT22;2976;49.764;9.796;2023-10-13T03:26:10;15.60;99.90
5901;DHT22;2976;49.764;9.796;2023-10-13T03:28:36;15.50;99.90
5901;DHT22;2976;49.764;9.796;2023-10-13T03:31:03;15.40;99.90
5901;DHT22;2976;49.764;9.796;2023-10-13T03:33:29;15.30;99.90
5901;DHT22;2976;49.764;9.796;2023-10-13T03:35:58;15.30;99.90
5901;DHT22;2976;49.764;9.796;2023-10-13T03:38:31;15.30;99.90
5901;DHT22;2976;49.764;9.796;2023-10-13T03:41:02;15.20;99.90
5901;DHT22;2976;49.764;9.796;2023-10-13T03:43:37;15.20;99.90
5901;DHT22;2976;49.764;9.796;2023-10-13T03:46:10;15.10;99.90
5901;DHT22;2976;49.764;9.796;2023-10-13T03:48:36;15.10;99.90
5901;DHT22;2976;49.764;9.796;2023-10-13T03:51:17;15.00;99.90
5901;DHT22;2976;49.764;9.796;2023-10-13T03:53:43;14.80;99.90
5901;DHT22;2976;49.764;9.796;2023-10-13T03:56:26;14.80;99.90
5901;DHT22;2976;49.764;9.796;2023-10-13T03:58:53;14.70;99.90
5901;DHT22;2976;49.764;9.796;2023-10-13T04:01:22;14.70;99.90
5901;DHT22;2976;49.764;9.796;2023-10-13T04:04:00;14.60;99.90
5901;DHT22;2976;49.764;9.796;2023-10-13T04:06:32;14.70;99.90
5901;DHT22;2976;49.764;9.796;2023-10-13T04:09:14;14.60;99.90
5901;DHT22;2976;49.764;9.796;2023-10-13T04:12:03;14.60;99.90
5901;DHT22;2976;49.764;9.796;2023-10-13T04:14:41;14.70;99.90
5901;DHT22;2976;49.764;9.796;2023-10-13T04:17:09;14.70;99.90
5901;DHT22;2976;49.764;9.796;2023-10-13T04:19:48;14.70;99.90
5901;DHT22;2976;49.764;9.796;2023-10-13T04:25:26;14.60;99.90
5901;DHT22;2976;49.764;9.796;2023-10-13T04:28:17;14.60;99.90
5901;DHT22;2976;49.764;9.796;2023-10-13T04:30:55;14.60;99.90
5901;DHT22;2976;49.764;9.796;2023-10-13T04:33:24;14.60;99.90
5901;DHT22;2976;49.764;9.796;2023-10-13T04:38:47;14.50;99.90
5901;DHT22;2976;49.764;9.796;2023-10-13T04:41:38;14.50;99.90
5901;DHT22;2976;49.764;9.796;2023-10-13T04:44:06;14.50;99.90
5901;DHT22;2976;49.764;9.796;2023-10-13T04:46:53;14.50;99.90
5901;DHT22;2976;49.764;9.796;2023-10-13T04:49:23;14.40;99.90
5901;DHT22;2976;49.764;9.796;2023-10-13T04:51:55;14.40;99.90
5901;DHT22;2976;49.764;9.796;2023-10-13T04:54:28;14.40;99.90
5901;DHT22;2976;49.764;9.796;2023-10-13T04:57:00;14.40;99.90
5901;DHT22;2976;49.764;9.796;2023-10-13T04:59:46;14.40;99.90
5901;DHT22;2976;49.764;9.796;2023-10-13T05:02:31;14.40;99.90
5901;DHT22;2976;49.764;9.796;2023-10-13T05:05:13;14.40;99.90
5901;DHT22;2976;49.764;9.796;2023-10-13T05:07:40;14.50;99.90
5901;DHT22;2976;49.764;9.796;2023-10-13T05:10:24;14.60;99.90
5901;DHT22;2976;49.764;9.796;2023-10-13T05:13:08;14.60;99.90
5901;DHT22;2976;49.764;9.796;2023-10-13T05:15:52;14.70;99.90
5901;DHT22;2976;49.764;9.796;2023-10-13T05:18:37;14.70;99.90
5901;DHT22;2976;49.764;9.796;2023-10-13T05:21:21;14.90;99.90
5901;DHT22;2976;49.764;9.796;2023-10-13T05:24:05;14.90;99.90
5901;DHT22;2976;49.764;9.796;2023-10-13T05:26:50;15.00;99.90
5901;DHT22;2976;49.764;9.796;2023-10-13T05:29:38;15.00;99.90
5901;DHT22;2976;49.764;9.796;2023-10-13T05:32:22;14.90;99.90
5901;DHT22;2976;49.764;9.796;2023-10-13T05:35:07;14.90;99.90
5901;DHT22;2976;49.764;9.796;2023-10-13T05:37:51;14.90;99.90
5901;DHT22;2976;49.764;9.796;2023-10-13T05:40:35;14.80;99.90
5901;DHT22;2976;49.764;9.796;2023-10-13T05:43:19;14.70;99.90
5901;DHT22;2976;49.764;9.796;2023-10-13T05:46:04;14.70;99.90
5901;DHT22;2976;49.764;9.796;2023-10-13T05:48:48;14.70;99.90
5901;DHT22;2976;49.764;9.796;2023-10-13T05:51:23;14.70;99.90
5901;DHT22;2976;49.764;9.796;2023-10-13T05:54:01;14.70;99.90
5901;DHT22;2976;49.764;9.796;2023-10-13T05:59:24;14.70;99.90
5901;DHT22;2976;49.764;9.796;2023-10-13T06:02:08;14.80;99.90
5901;DHT22;2976;49.764;9.796;2023-10-13T06:04:52;14.80;99.90
5901;DHT22;2976;49.764;9.796;2023-10-13T06:07:36;14.90;99.90
5901;DHT22;2976;49.764;9.796;2023-10-13T06:10:20;15.00;99.90
5901;DHT22;2976;49.764;9.796;2023-10-13T06:13:04;15.10;99.90
5901;DHT22;2976;49.764;9.796;2023-10-13T06:15:48;15.20;99.90
5901;DHT22;2976;49.764;9.796;2023-10-13T06:18:32;15.40;99.90
5901;DHT22;2976;49.764;9.796;2023-10-13T06:21:16;15.60;99.90
5901;DHT22;2976;49.764;9.796;2023-10-13T06:24:01;15.70;99.90
5901;DHT22;2976;49.764;9.796;2023-10-13T06:26:48;15.80;99.90
5901;DHT22;2976;49.764;9.796;2023-10-13T06:29:33;16.00;99.90
5901;DHT22;2976;49.764;9.796;2023-10-13T06:31:59;16.10;99.90
5901;DHT22;2976;49.764;9.796;2023-10-13T06:34:30;16.20;99.90
5901;DHT22;2976;49.764;9.796;2023-10-13T06:37:13;16.20;99.90
5901;DHT22;2976;49.764;9.796;2023-10-13T06:39:49;16.20;99.90
5901;DHT22;2976;49.764;9.796;2023-10-13T06:42:15;16.20;99.90
5901;DHT22;2976;49.764;9.796;2023-10-13T06:44:45;16.30;99.90
5901;DHT22;2976;49.764;9.796;2023-10-13T06:47:12;16.30;99.90
5901;DHT22;2976;49.764;9.796;2023-10-13T06:49:41;16.40;99.90
5901;DHT22;2976;49.764;9.796;2023-10-13T06:52:09;16.50;99.90
5901;DHT22;2976;49.764;9.796;2023-10-13T06:54:38;16.50;99.90
5901;DHT22;2976;49.764;9.796;2023-10-13T06:57:07;16.50;81.20
5901;DHT22;2976;49.764;9.796;2023-10-13T06:59:36;16.50;83.80
5901;DHT22;2976;49.764;9.796;2023-10-13T07:02:05;16.60;41.10
5901;DHT22;2976;49.764;9.796;2023-10-13T07:04:32;16.70;36.20
5901;DHT22;2976;49.764;9.796;2023-10-13T07:06:58;16.70;16.90
5901;DHT22;2976;49.764;9.796;2023-10-13T07:09:26;16.70;6.60
5901;DHT22;2976;49.764;9.796;2023-10-13T07:12:02;16.80;1.00
5901;DHT22;2976;49.764;9.796;2023-10-13T07:14:29;17.00;1.00
5901;DHT22;2976;49.764;9.796;2023-10-13T07:17:03;17.20;1.00
5901;DHT22;2976;49.764;9.796;2023-10-13T07:19:30;17.40;1.00
5901;DHT22;2976;49.764;9.796;2023-10-13T07:21:57;17.70;1.00
5901;DHT22;2976;49.764;9.796;2023-10-13T07:24:45;18.00;1.00
5901;DHT22;2976;49.764;9.796;2023-10-13T07:27:17;18.60;99.90
5901;DHT22;2976;49.764;9.796;2023-10-13T07:29:55;18.90;99.90
5901;DHT22;2976;49.764;9.796;2023-10-13T07:32:42;19.20;99.90
5901;DHT22;2976;49.764;9.796;2023-10-13T07:35:15;19.50;99.90
5901;DHT22;2976;49.764;9.796;2023-10-13T07:37:43;19.70;1.00
5901;DHT22;2976;49.764;9.796;2023-10-13T07:40:09;19.80;99.90
5901;DHT22;2976;49.764;9.796;2023-10-13T07:42:50;19.80;1.00
5901;DHT22;2976;49.764;9.796;2023-10-13T07:45:17;19.90;1.00
5901;DHT22;2976;49.764;9.796;2023-10-13T07:47:51;20.10;99.90
5901;DHT22;2976;49.764;9.796;2023-10-13T07:50:17;20.40;99.90
5901;DHT22;2976;49.764;9.796;2023-10-13T07:52:51;20.60;1.00
5901;DHT22;2976;49.764;9.796;2023-10-13T07:55:45;20.90;99.90
5901;DHT22;2976;49.764;9.796;2023-10-13T07:58:10;21.30;99.90
5901;DHT22;2976;49.764;9.796;2023-10-13T08:00:39;21.20;99.90
5901;DHT22;2976;49.764;9.796;2023-10-13T08:03:11;21.50;45.70
5901;DHT22;2976;49.764;9.796;2023-10-13T08:05:40;21.80;1.00
5901;DHT22;2976;49.764;9.796;2023-10-13T08:08:24;21.90;99.90
5901;DHT22;2976;49.764;9.796;2023-10-13T08:13:38;22.60;1.00
5901;DHT22;2976;49.764;9.796;2023-10-13T08:16:04;22.80;1.00
5901;DHT22;2976;49.764;9.796;2023-10-13T08:18:37;23.10;1.00
5901;DHT22;2976;49.764;9.796;2023-10-13T08:21:06;23.30;1.00
5901;DHT22;2976;49.764;9.796;2023-10-13T08:23:32;23.60;99.90
5901;DHT22;2976;49.764;9.796;2023-10-13T08:26:16;23.90;99.90
5901;DHT22;2976;49.764;9.796;2023-10-13T08:29:01;24.00;99.90
5901;DHT22;2976;49.764;9.796;2023-10-13T08:31:49;24.00;99.90
5901;DHT22;2976;49.764;9.796;2023-10-13T08:34:36;23.60;99.90
5901;DHT22;2976;49.764;9.796;2023-10-13T08:37:08;23.50;99.90
5901;DHT22;2976;49.764;9.796;2023-10-13T08:39:53;23.60;99.90
5901;DHT22;2976;49.764;9.796;2023-10-13T08:42:39;23.20;99.90
5901;DHT22;2976;49.764;9.796;2023-10-13T08:45:14;23.40;99.90
5901;DHT22;2976;49.764;9.796;2023-10-13T08:48:08;23.80;99.90
5901;DHT22;2976;49.764;9.796;2023-10-13T08:50:52;23.90;99.90
5901;DHT22;2976;49.764;9.796;2023-10-13T08:56:06;23.90;99.90
5901;DHT22;2976;49.764;9.796;2023-10-13T08:58:36;24.20;99.90
5901;DHT22;2976;49.764;9.796;2023-10-13T09:07:05;24.20;99.90
5901;DHT22;2976;49.764;9.796;2023-10-13T09:09:31;24.60;99.90
5901;DHT22;2976;49.764;9.796;2023-10-13T09:12:23;24.70;99.90
5901;DHT22;2976;49.764;9.796;2023-10-13T09:15:09;24.80;99.90
5901;DHT22;2976;49.764;9.796;2023-10-13T09:17:46;25.00;99.90
5901;DHT22;2976;49.764;9.796;2023-10-13T09:20:38;24.70;99.90
5901;DHT22;2976;49.764;9.796;2023-10-13T09:23:14;25.00;99.90
5901;DHT22;2976;49.764;9.796;2023-10-13T09:25:49;24.90;99.90
5901;DHT22;2976;49.764;9.796;2023-10-13T09:28:34;24.80;99.90
5901;DHT22;2976;49.764;9.796;2023-10-13T09:31:03;24.70;99.90
5901;DHT22;2976;49.764;9.796;2023-10-13T09:33:32;24.90;99.90
5901;DHT22;2976;49.764;9.796;2023-10-13T09:36:02;24.80;99.90
5901;DHT22;2976;49.764;9.796;2023-10-13T09:38:35;24.80;99.90
5901;DHT22;2976;49.764;9.796;2023-10-13T09:41:13;24.90;98.20
5901;DHT22;2976;49.764;9.796;2023-10-13T09:43:45;25.00;99.90
5901;DHT22;2976;49.764;9.796;2023-10-13T09:46:16;25.10;99.90
5901;DHT22;2976;49.764;9.796;2023-10-13T09:48:47;25.10;99.90
5901;DHT22;2976;49.764;9.796;2023-10-13T09:51:16;25.10;91.90
5901;DHT22;2976;49.764;9.796;2023-10-13T09:53:55;25.20;93.60
5901;DHT22;2976;49.764;9.796;2023-10-13T09:56:35;25.30;90.20
5901;DHT22;2976;49.764;9.796;2023-10-13T09:59:19;25.30;94.00
5901;DHT22;2976;49.764;9.796;2023-10-13T10:01:46;25.40;99.00
5901;DHT22;2976;49.764;9.796;2023-10-13T10:04:23;25.50;93.70
5901;DHT22;2976;49.764;9.796;2023-10-13T10:06:56;25.40;93.10
5901;DHT22;2976;49.764;9.796;2023-10-13T10:09:33;25.00;66.90
5901;DHT22;2976;49.764;9.796;2023-10-13T10:17:45;24.20;83.30
5901;DHT22;2976;49.764;9.796;2023-10-13T10:20:12;24.20;99.90
5901;DHT22;2976;49.764;9.796;2023-10-13T10:22:41;24.20;93.20
5901;DHT22;2976;49.764;9.796;2023-10-13T10:25:13;24.10;80.20
5901;DHT22;2976;49.764;9.796;2023-10-13T10:27:59;24.10;92.00
5901;DHT22;2976;49.764;9.796;2023-10-13T10:30:28;23.90;94.20
5901;DHT22;2976;49.764;9.796;2023-10-13T10:32:55;23.70;80.80
5901;DHT22;2976;49.764;9.796;2023-10-13T10:36:00;23.80;93.50
5901;DHT22;2976;49.764;9.796;2023-10-13T10:38:26;24.10;99.10
5901;DHT22;2976;49.764;9.796;2023-10-13T10:40:55;24.20;98.50
5901;DHT22;2976;49.764;9.796;2023-10-13T10:45:55;23.70;82.30
5901;DHT22;2976;49.764;9.796;2023-10-13T10:48:27;23.40;80.30
5901;DHT22;2976;49.764;9.796;2023-10-13T10:51:00;23.40;95.90
5901;DHT22;2976;49.764;9.796;2023-10-13T10:53:34;23.40;87.60
5901;DHT22;2976;49.764;9.796;2023-10-13T10:56:10;23.40;91.10
5901;DHT22;2976;49.764;9.796;2023-10-13T10:58:55;23.60;92.10
5901;DHT22;2976;49.764;9.796;2023-10-13T11:01:25;23.90;81.30
5901;DHT22;2976;49.764;9.796;2023-10-13T11:04:00;24.00;74.10
5901;DHT22;2976;49.764;9.796;2023-10-13T11:06:47;24.00;60.40
5901;DHT22;2976;49.764;9.796;2023-10-13T11:09:13;24.00;59.60
5901;DHT22;2976;49.764;9.796;2023-10-13T11:12:17;24.10;59.70
5901;DHT22;2976;49.764;9.796;2023-10-13T11:15:06;24.30;59.70
5901;DHT22;2976;49.764;9.796;2023-10-13T11:17:51;24.30;58.30
5901;DHT22;2976;49.764;9.796;2023-10-13T11:20:20;24.40;53.30
5901;DHT22;2976;49.764;9.796;2023-10-13T11:23:13;24.30;48.30
5901;DHT22;2976;49.764;9.796;2023-10-13T11:25:39;23.90;46.40
5901;DHT22;2976;49.764;9.796;2023-10-13T11:28:15;23.60;46.30
5901;DHT22;2976;49.764;9.796;2023-10-13T11:30:57;23.70;46.90
5901;DHT22;2976;49.764;9.796;2023-10-13T11:33:26;23.70;59.30
5901;DHT22;2976;49.764;9.796;2023-10-13T11:35:56;23.80;52.80
5901;DHT22;2976;49.764;9.796;2023-10-13T11:40:56;24.20;46.30
5901;DHT22;2976;49.764;9.796;2023-10-13T11:43:50;24.50;50.50
5901;DHT22;2976;49.764;9.796;2023-10-13T11:46:24;24.60;42.10
5901;DHT22;2976;49.764;9.796;2023-10-13T11:51:47;25.10;38.80
5901;DHT22;2976;49.764;9.796;2023-10-13T11:54:19;25.20;37.30
5901;DHT22;2976;49.764;9.796;2023-10-13T11:56:48;25.10;30.80
5901;DHT22;2976;49.764;9.796;2023-10-13T11:59:14;25.20;31.40
5901;DHT22;2976;49.764;9.796;2023-10-13T12:01:50;25.10;29.60
5901;DHT22;2976;49.764;9.796;2023-10-13T12:04:36;24.90;30.80
5901;DHT22;2976;49.764;9.796;2023-10-13T12:07:21;24.70;31.80
5901;DHT22;2976;49.764;9.796;2023-10-13T12:09:53;24.60;34.30
5901;DHT22;2976;49.764;9.796;2023-10-13T12:12:22;24.50;28.90
5901;DHT22;2976;49.764;9.796;2023-10-13T12:14:48;24.40;30.30
5901;DHT22;2976;49.764;9.796;2023-10-13T12:17:29;24.40;36.50
5901;DHT22;2976;49.764;9.796;2023-10-13T12:20:06;24.30;36.30
5901;DHT22;2976;49.764;9.796;2023-10-13T12:22:38;24.40;36.60
5901;DHT22;2976;49.764;9.796;2023-10-13T12:25:07;24.30;34.70
5901;DHT22;2976;49.764;9.796;2023-10-13T12:28:10;24.50;37.60
5901;DHT22;2976;49.764;9.796;2023-10-13T12:30:45;24.40;38.30
5901;DHT22;2976;49.764;9.796;2023-10-13T12:33:20;24.40;37.70
5901;DHT22;2976;49.764;9.796;2023-10-13T12:36:06;24.30;40.80
5901;DHT22;2976;49.764;9.796;2023-10-13T12:38:47;24.50;47.80
5901;DHT22;2976;49.764;9.796;2023-10-13T12:41:20;24.60;45.70
5901;DHT22;2976;49.764;9.796;2023-10-13T12:44:05;24.80;39.50
5901;DHT22;2976;49.764;9.796;2023-10-13T12:46:50;24.90;44.00
5901;DHT22;2976;49.764;9.796;2023-10-13T12:49:35;25.00;43.40
5901;DHT22;2976;49.764;9.796;2023-10-13T12:52:07;25.30;46.30
5901;DHT22;2976;49.764;9.796;2023-10-13T12:54:46;25.30;38.60
5901;DHT22;2976;49.764;9.796;2023-10-13T12:57:16;25.60;41.60
5901;DHT22;2976;49.764;9.796;2023-10-13T12:59:42;25.60;32.20
5901;DHT22;2976;49.764;9.796;2023-10-13T13:02:08;25.70;31.10
5901;DHT22;2976;49.764;9.796;2023-10-13T13:04:43;25.70;29.90
5901;DHT22;2976;49.764;9.796;2023-10-13T13:07:16;25.60;23.90
5901;DHT22;2976;49.764;9.796;2023-10-13T13:09:42;25.40;21.90
5901;DHT22;2976;49.764;9.796;2023-10-13T13:12:08;25.30;24.00
5901;DHT22;2976;49.764;9.796;2023-10-13T13:14:38;25.20;21.30
5901;DHT22;2976;49.764;9.796;2023-10-13T13:17:06;25.20;23.50
5901;DHT22;2976;49.764;9.796;2023-10-13T13:22:02;25.20;23.50
5901;DHT22;2976;49.764;9.796;2023-10-13T13:24:28;25.10;19.40
5901;DHT22;2976;49.764;9.796;2023-10-13T13:26:55;25.10;25.80
5901;DHT22;2976;49.764;9.796;2023-10-13T13:29:21;25.10;21.60
5901;DHT22;2976;49.764;9.796;2023-10-13T13:31:47;25.10;21.90
5901;DHT22;2976;49.764;9.796;2023-10-13T13:34:12;25.10;23.10
5901;DHT22;2976;49.764;9.796;2023-10-13T13:36:38;25.10;21.50
5901;DHT22;2976;49.764;9.796;2023-10-13T13:39:05;25.10;17.00
5901;DHT22;2976;49.764;9.796;2023-10-13T13:41:32;25.20;19.50
5901;DHT22;2976;49.764;9.796;2023-10-13T13:43:58;25.20;17.80
5901;DHT22;2976;49.764;9.796;2023-10-13T13:46:38;25.20;15.50
5901;DHT22;2976;49.764;9.796;2023-10-13T13:49:07;25.20;19.30
5901;DHT22;2976;49.764;9.796;2023-10-13T13:51:34;25.20;31.80
5901;DHT22;2976;49.764;9.796;2023-10-13T13:54:03;25.30;28.50
5901;DHT22;2976;49.764;9.796;2023-10-13T13:56:32;25.50;14.30
5901;DHT22;2976;49.764;9.796;2023-10-13T13:59:03;25.60;13.10
5901;DHT22;2976;49.764;9.796;2023-10-13T14:01:34;25.70;14.30
5901;DHT22;2976;49.764;9.796;2023-10-13T14:04:02;25.70;7.90
5901;DHT22;2976;49.764;9.796;2023-10-13T14:06:29;25.60;9.20
5901;DHT22;2976;49.764;9.796;2023-10-13T14:08:56;25.60;7.40
5901;DHT22;2976;49.764;9.796;2023-10-13T14:11:23;25.60;8.80
5901;DHT22;2976;49.764;9.796;2023-10-13T14:13:49;25.60;3.80
5901;DHT22;2976;49.764;9.796;2023-10-13T14:16:17;25.40;1.90
5901;DHT22;2976;49.764;9.796;2023-10-13T14:18:47;25.30;1.30
5901;DHT22;2976;49.764;9.796;2023-10-13T14:21:13;25.30;1.00
5901;DHT22;2976;49.764;9.796;2023-10-13T14:23:46;25.40;1.00
5901;DHT22;2976;49.764;9.796;2023-10-13T14:26:13;25.40;1.00
5901;DHT22;2976;49.764;9.796;2023-10-13T14:28:39;25.50;1.00
5901;DHT22;2976;49.764;9.796;2023-10-13T14:31:16;25.50;1.00
5901;DHT22;2976;49.764;9.796;2023-10-13T14:33:42;25.40;1.00
5901;DHT22;2976;49.764;9.796;2023-10-13T14:36:10;25.30;1.00
5901;DHT22;2976;49.764;9.796;2023-10-13T14:38:35;25.20;1.00
5901;DHT22;2976;49.764;9.796;2023-10-13T14:41:01;25.10;1.00
5901;DHT22;2976;49.764;9.796;2023-10-13T14:43:26;25.00;1.00
5901;DHT22;2976;49.764;9.796;2023-10-13T14:45:53;24.90;1.00
5901;DHT22;2976;49.764;9.796;2023-10-13T14:48:19;24.90;1.00
5901;DHT22;2976;49.764;9.796;2023-10-13T14:50:44;24.90;1.00
5901;DHT22;2976;49.764;9.796;2023-10-13T14:53:10;24.80;1.50
5901;DHT22;2976;49.764;9.796;2023-10-13T14:55:36;24.70;1.50
5901;DHT22;2976;49.764;9.796;2023-10-13T14:58:05;24.60;2.90
5901;DHT22;2976;49.764;9.796;2023-10-13T15:00:33;24.40;3.80
5901;DHT22;2976;49.764;9.796;2023-10-13T15:03:00;24.30;8.00
5901;DHT22;2976;49.764;9.796;2023-10-13T15:05:31;24.30;6.30
5901;DHT22;2976;49.764;9.796;2023-10-13T15:07:58;24.20;6.40
5901;DHT22;2976;49.764;9.796;2023-10-13T15:10:25;24.20;5.40
5901;DHT22;2976;49.764;9.796;2023-10-13T15:12:51;24.20;7.30
5901;DHT22;2976;49.764;9.796;2023-10-13T15:15:17;24.20;6.10
5901;DHT22;2976;49.764;9.796;2023-10-13T15:17:47;24.20;7.40
5901;DHT22;2976;49.764;9.796;2023-10-13T15:20:13;24.30;5.10
5901;DHT22;2976;49.764;9.796;2023-10-13T15:22:45;24.40;1.80
5901;DHT22;2976;49.764;9.796;2023-10-13T15:25:14;24.40;3.10
5901;DHT22;2976;49.764;9.796;2023-10-13T15:27:47;24.40;1.50
5901;DHT22;2976;49.764;9.796;2023-10-13T15:30:23;24.40;3.20
5901;DHT22;2976;49.764;9.796;2023-10-13T15:32:52;24.40;2.70
5901;DHT22;2976;49.764;9.796;2023-10-13T15:35:19;24.40;1.50
5901;DHT22;2976;49.764;9.796;2023-10-13T15:37:45;24.30;3.80
5901;DHT22;2976;49.764;9.796;2023-10-13T15:40:14;24.20;2.50
5901;DHT22;2976;49.764;9.796;2023-10-13T15:42:43;24.00;1.90
5901;DHT22;2976;49.764;9.796;2023-10-13T15:45:10;24.10;2.80
5901;DHT22;2976;49.764;9.796;2023-10-13T15:47:44;23.90;2.80
5901;DHT22;2976;49.764;9.796;2023-10-13T15:50:12;23.90;1.40
5901;DHT22;2976;49.764;9.796;2023-10-13T15:52:41;23.90;1.00
5901;DHT22;2976;49.764;9.796;2023-10-13T15:55:12;23.90;1.30
5901;DHT22;2976;49.764;9.796;2023-10-13T15:57:39;23.90;1.00
5901;DHT22;2976;49.764;9.796;2023-10-13T16:00:05;23.80;1.00
5901;DHT22;2976;49.764;9.796;2023-10-13T16:02:55;23.90;1.00
5901;DHT22;2976;49.764;9.796;2023-10-13T16:05:28;23.80;1.00
5901;DHT22;2976;49.764;9.796;2023-10-13T16:07:55;23.70;1.00
5901;DHT22;2976;49.764;9.796;2023-10-13T16:10:24;23.60;11.50
5901;DHT22;2976;49.764;9.796;2023-10-13T16:12:49;23.60;1.00
5901;DHT22;2976;49.764;9.796;2023-10-13T16:15:15;23.50;2.00
5901;DHT22;2976;49.764;9.796;2023-10-13T16:17:41;23.40;1.90
5901;DHT22;2976;49.764;9.796;2023-10-13T16:20:09;23.30;2.40
5901;DHT22;2976;49.764;9.796;2023-10-13T16:22:42;23.20;3.30
5901;DHT22;2976;49.764;9.796;2023-10-13T16:25:09;23.20;3.30
5901;DHT22;2976;49.764;9.796;2023-10-13T16:27:38;23.10;3.60
5901;DHT22;2976;49.764;9.796;2023-10-13T16:30:07;23.10;5.00
5901;DHT22;2976;49.764;9.796;2023-10-13T16:32:35;22.90;4.00
5901;DHT22;2976;49.764;9.796;2023-10-13T16:35:04;22.90;4.40
5901;DHT22;2976;49.764;9.796;2023-10-13T16:37:31;22.80;5.20
5901;DHT22;2976;49.764;9.796;2023-10-13T16:39:56;22.70;4.00
5901;DHT22;2976;49.764;9.796;2023-10-13T16:42:33;22.70;5.00
5901;DHT22;2976;49.764;9.796;2023-10-13T16:45:00;22.60;5.20
5901;DHT22;2976;49.764;9.796;2023-10-13T16:47:43;22.60;5.50
5901;DHT22;2976;49.764;9.796;2023-10-13T16:50:12;22.50;5.10
5901;DHT22;2976;49.764;9.796;2023-10-13T16:52:40;22.40;6.00
5901;DHT22;2976;49.764;9.796;2023-10-13T16:55:09;22.30;6.80
5901;DHT22;2976;49.764;9.796;2023-10-13T16:57:35;22.20;8.60
5901;DHT22;2976;49.764;9.796;2023-10-13T17:00:01;22.10;8.60
5901;DHT22;2976;49.764;9.796;2023-10-13T17:02:32;22.00;10.00
5901;DHT22;2976;49.764;9.796;2023-10-13T17:04:57;21.90;10.20
5901;DHT22;2976;49.764;9.796;2023-10-13T17:07:23;21.80;11.50
5901;DHT22;2976;49.764;9.796;2023-10-13T17:09:50;21.80;12.70
5901;DHT22;2976;49.764;9.796;2023-10-13T17:12:16;21.70;12.80
5901;DHT22;2976;49.764;9.796;2023-10-13T17:14:41;21.80;14.80
5901;DHT22;2976;49.764;9.796;2023-10-13T17:17:09;21.70;12.70
5901;DHT22;2976;49.764;9.796;2023-10-13T17:19:34;21.70;12.80